sensor_id;sensor_type;location;lat;lon;timestamp;P1;durP1;ratioP1;P2;durP2;ratioP2
21955;SDS011;11142;49.930;8.606;2023-09-19T00:00:39;2.22;;;1.20;;
21955;SDS011;11142;49.930;8.606;2023-09-19T00:03:08;2.03;;;1.15;;
21955;SDS011;11142;49.930;8.606;2023-09-19T00:05:39;3.00;;;1.10;;
21955;SDS011;11142;49.930;8.606;2023-09-19T00:08:12;2.65;;;1.17;;
21955;SDS011;11142;49.930;8.606;2023-09-19T00:10:42;1.45;;;0.90;;
21955;SDS011;11142;49.930;8.606;2023-09-19T00:13:11;1.88;;;1.17;;
21955;SDS011;11142;49.930;8.606;2023-09-19T00:15:43;3.00;;;1.05;;
21955;SDS011;11142;49.930;8.606;2023-09-19T00:18:16;1.58;;;1.00;;
21955;SDS011;11142;49.930;8.606;2023-09-19T00:20:45;4.45;;;1.00;;
21955;SDS011;11142;49.930;8.606;2023-09-19T00:23:17;4.35;;;0.95;;
21955;SDS011;11142;49.930;8.606;2023-09-19T00:25:48;1.92;;;1.02;;
21955;SDS011;11142;49.930;8.606;2023-09-19T00:28:17;2.88;;;1.00;;
21955;SDS011;11142;49.930;8.606;2023-09-19T00:30:47;1.25;;;1.02;;
21955;SDS011;11142;49.930;8.606;2023-09-19T00:33:18;1.67;;;1.10;;
21955;SDS011;11142;49.930;8.606;2023-09-19T00:35:47;6.05;;;1.20;;
21955;SDS011;11142;49.930;8.606;2023-09-19T00:38:18;4.20;;;1.10;;
21955;SDS011;11142;49.930;8.606;2023-09-19T00:40:51;1.77;;;1.00;;
21955;SDS011;11142;49.930;8.606;2023-09-19T00:43:20;2.47;;;1.40;;
21955;SDS011;11142;49.930;8.606;2023-09-19T00:45:52;1.83;;;1.13;;
21955;SDS011;11142;49.930;8.606;2023-09-19T00:48:22;1.42;;;1.02;;
21955;SDS011;11142;49.930;8.606;2023-09-19T00:50:54;4.50;;;1.55;;
21955;SDS011;11142;49.930;8.606;2023-09-19T00:53:25;2.88;;;1.17;;
21955;SDS011;11142;49.930;8.606;2023-09-19T00:55:55;3.55;;;1.50;;
21955;SDS011;11142;49.930;8.606;2023-09-19T00:58:23;2.60;;;1.13;;
21955;SDS011;11142;49.930;8.606;2023-09-19T01:00:52;2.72;;;1.23;;
21955;SDS011;11142;49.930;8.606;2023-09-19T01:03:22;3.67;;;1.40;;
21955;SDS011;11142;49.930;8.606;2023-09-19T01:05:50;2.75;;;1.20;;
21955;SDS011;11142;49.930;8.606;2023-09-19T01:08:19;1.88;;;1.05;;
21955;SDS011;11142;49.930;8.606;2023-09-19T01:10:49;3.20;;;1.25;;
21955;SDS011;11142;49.930;8.606;2023-09-19T01:13:24;2.00;;;1.30;;
21955;SDS011;11142;49.930;8.606;2023-09-19T01:16:02;2.13;;;1.30;;
21955;SDS011;11142;49.930;8.606;2023-09-19T01:18:40;3.67;;;1.60;;
21955;SDS011;11142;49.930;8.606;2023-09-19T01:21:15;9.77;;;1.20;;
21955;SDS011;11142;49.930;8.606;2023-09-19T01:24:10;1.25;;;1.00;;
21955;SDS011;11142;49.930;8.606;2023-09-19T01:27:06;3.10;;;1.52;;
21955;SDS011;11142;49.930;8.606;2023-09-19T01:30:02;1.88;;;1.27;;
21955;SDS011;11142;49.930;8.606;2023-09-19T01:32:35;5.07;;;1.45;;
21955;SDS011;11142;49.930;8.606;2023-09-19T01:35:05;4.75;;;1.77;;
21955;SDS011;11142;49.930;8.606;2023-09-19T01:37:39;4.55;;;1.60;;
21955;SDS011;11142;49.930;8.606;2023-09-19T01:40:12;3.75;;;1.92;;
21955;SDS011;11142;49.930;8.606;2023-09-19T01:42:44;3.17;;;1.50;;
21955;SDS011;11142;49.930;8.606;2023-09-19T01:45:20;3.78;;;1.50;;
21955;SDS011;11142;49.930;8.606;2023-09-19T01:48:00;8.45;;;1.50;;
21955;SDS011;11142;49.930;8.606;2023-09-19T01:50:38;6.07;;;1.60;;
21955;SDS011;11142;49.930;8.606;2023-09-19T01:53:13;2.97;;;1.40;;
21955;SDS011;11142;49.930;8.606;2023-09-19T01:55:48;1.70;;;1.20;;
21955;SDS011;11142;49.930;8.606;2023-09-19T01:58:20;1.70;;;1.33;;
21955;SDS011;11142;49.930;8.606;2023-09-19T02:00:55;2.50;;;1.30;;
21955;SDS011;11142;49.930;8.606;2023-09-19T02:03:26;1.52;;;1.35;;
21955;SDS011;11142;49.930;8.606;2023-09-19T02:05:55;5.18;;;1.90;;
21955;SDS011;11142;49.930;8.606;2023-09-19T02:08:23;2.90;;;1.45;;
21955;SDS011;11142;49.930;8.606;2023-09-19T02:10:52;4.45;;;1.60;;
21955;SDS011;11142;49.930;8.606;2023-09-19T02:13:21;2.53;;;1.40;;
21955;SDS011;11142;49.930;8.606;2023-09-19T02:15:51;4.22;;;1.60;;
21955;SDS011;11142;49.930;8.606;2023-09-19T02:18:21;4.45;;;1.70;;
21955;SDS011;11142;49.930;8.606;2023-09-19T02:20:49;2.58;;;1.80;;
21955;SDS011;11142;49.930;8.606;2023-09-19T02:23:19;4.15;;;1.50;;
21955;SDS011;11142;49.930;8.606;2023-09-19T02:25:51;1.88;;;1.48;;
21955;SDS011;11142;49.930;8.606;2023-09-19T02:28:20;2.25;;;1.70;;
21955;SDS011;11142;49.930;8.606;2023-09-19T02:30:50;1.73;;;1.38;;
21955;SDS011;11142;49.930;8.606;2023-09-19T02:33:18;4.13;;;1.98;;
21955;SDS011;11142;49.930;8.606;2023-09-19T02:35:48;5.68;;;2.00;;
21955;SDS011;11142;49.930;8.606;2023-09-19T02:38:17;4.13;;;1.92;;
21955;SDS011;11142;49.930;8.606;2023-09-19T02:40:51;2.38;;;1.90;;
21955;SDS011;11142;49.930;8.606;2023-09-19T02:43:19;3.38;;;2.00;;
21955;SDS011;11142;49.930;8.606;2023-09-19T02:45:48;5.35;;;1.83;;
21955;SDS011;11142;49.930;8.606;2023-09-19T02:48:17;3.42;;;1.90;;
21955;SDS011;11142;49.930;8.606;2023-09-19T02:50:45;1.67;;;1.50;;
21955;SDS011;11142;49.930;8.606;2023-09-19T02:53:18;5.07;;;2.20;;
21955;SDS011;11142;49.930;8.606;2023-09-19T02:55:49;4.32;;;2.08;;
21955;SDS011;11142;49.930;8.606;2023-09-19T02:58:21;5.10;;;2.45;;
21955;SDS011;11142;49.930;8.606;2023-09-19T03:00:52;6.20;;;2.47;;
21955;SDS011;11142;49.930;8.606;2023-09-19T03:03:23;3.85;;;2.22;;
21955;SDS011;11142;49.930;8.606;2023-09-19T03:05:52;3.42;;;2.20;;
21955;SDS011;11142;49.930;8.606;2023-09-19T03:08:22;7.80;;;2.63;;
21955;SDS011;11142;49.930;8.606;2023-09-19T03:10:51;4.03;;;2.70;;
21955;SDS011;11142;49.930;8.606;2023-09-19T03:13:20;3.47;;;2.33;;
21955;SDS011;11142;49.930;8.606;2023-09-19T03:15:48;4.68;;;2.55;;
21955;SDS011;11142;49.930;8.606;2023-09-19T03:18:22;3.88;;;2.67;;
21955;SDS011;11142;49.930;8.606;2023-09-19T03:20:55;5.28;;;2.67;;
21955;SDS011;11142;49.930;8.606;2023-09-19T03:23:23;4.25;;;2.53;;
21955;SDS011;11142;49.930;8.606;2023-09-19T03:25:52;5.05;;;2.47;;
21955;SDS011;11142;49.930;8.606;2023-09-19T03:28:21;3.30;;;2.40;;
21955;SDS011;11142;49.930;8.606;2023-09-19T03:30:59;3.67;;;2.40;;
21955;SDS011;11142;49.930;8.606;2023-09-19T03:33:30;3.53;;;2.20;;
21955;SDS011;11142;49.930;8.606;2023-09-19T03:36:02;5.28;;;2.47;;
21955;SDS011;11142;49.930;8.606;2023-09-19T03:38:33;3.67;;;2.40;;
21955;SDS011;11142;49.930;8.606;2023-09-19T03:41:02;3.38;;;2.55;;
21955;SDS011;11142;49.930;8.606;2023-09-19T03:43:33;4.47;;;2.17;;
21955;SDS011;11142;49.930;8.606;2023-09-19T03:46:02;4.78;;;2.40;;
21955;SDS011;11142;49.930;8.606;2023-09-19T03:48:36;3.78;;;2.15;;
21955;SDS011;11142;49.930;8.606;2023-09-19T03:51:06;5.95;;;2.70;;
21955;SDS011;11142;49.930;8.606;2023-09-19T03:53:34;4.25;;;2.47;;
21955;SDS011;11142;49.930;8.606;2023-09-19T03:56:02;8.18;;;2.40;;
21955;SDS011;11142;49.930;8.606;2023-09-19T03:58:32;3.55;;;2.47;;
21955;SDS011;11142;49.930;8.606;2023-09-19T04:01:04;3.95;;;2.70;;
21955;SDS011;11142;49.930;8.606;2023-09-19T04:03:33;4.80;;;2.60;;
21955;SDS011;11142;49.930;8.606;2023-09-19T04:06:14;6.45;;;3.17;;
21955;SDS011;11142;49.930;8.606;2023-09-19T04:08:43;4.05;;;3.03;;
21955;SDS011;11142;49.930;8.606;2023-09-19T04:11:12;3.80;;;3.08;;
21955;SDS011;11142;49.930;8.606;2023-09-19T04:13:41;5.82;;;2.90;;
21955;SDS011;11142;49.930;8.606;2023-09-19T04:16:09;4.28;;;2.83;;
21955;SDS011;11142;49.930;8.606;2023-09-19T04:18:38;5.05;;;3.03;;
21955;SDS011;11142;49.930;8.606;2023-09-19T04:21:07;3.80;;;3.20;;
21955;SDS011;11142;49.930;8.606;2023-09-19T04:23:37;4.32;;;2.90;;
21955;SDS011;11142;49.930;8.606;2023-09-19T04:26:05;6.70;;;3.10;;
21955;SDS011;11142;49.930;8.606;2023-09-19T04:28:34;3.63;;;2.70;;
21955;SDS011;11142;49.930;8.606;2023-09-19T04:31:05;8.00;;;3.20;;
21955;SDS011;11142;49.930;8.606;2023-09-19T04:33:34;5.75;;;3.17;;
21955;SDS011;11142;49.930;8.606;2023-09-19T04:36:03;4.85;;;3.13;;
21955;SDS011;11142;49.930;8.606;2023-09-19T04:38:55;6.50;;;3.20;;
21955;SDS011;11142;49.930;8.606;2023-09-19T04:41:23;5.28;;;3.40;;
21955;SDS011;11142;49.930;8.606;2023-09-19T04:43:51;6.82;;;3.53;;
21955;SDS011;11142;49.930;8.606;2023-09-19T04:46:19;5.15;;;3.17;;
21955;SDS011;11142;49.930;8.606;2023-09-19T04:48:48;3.80;;;3.13;;
21955;SDS011;11142;49.930;8.606;2023-09-19T04:51:16;4.22;;;2.78;;
21955;SDS011;11142;49.930;8.606;2023-09-19T04:53:45;4.13;;;2.92;;
21955;SDS011;11142;49.930;8.606;2023-09-19T04:56:15;5.70;;;4.18;;
21955;SDS011;11142;49.930;8.606;2023-09-19T04:58:43;6.40;;;3.28;;
21955;SDS011;11142;49.930;8.606;2023-09-19T05:01:12;5.90;;;2.67;;
21955;SDS011;11142;49.930;8.606;2023-09-19T05:03:42;4.68;;;2.83;;
21955;SDS011;11142;49.930;8.606;2023-09-19T05:06:11;3.85;;;2.78;;
21955;SDS011;11142;49.930;8.606;2023-09-19T05:08:39;4.80;;;2.85;;
21955;SDS011;11142;49.930;8.606;2023-09-19T05:11:07;6.55;;;2.33;;
21955;SDS011;11142;49.930;8.606;2023-09-19T05:13:37;4.40;;;2.22;;
21955;SDS011;11142;49.930;8.606;2023-09-19T05:16:05;3.10;;;2.00;;
21955;SDS011;11142;49.930;8.606;2023-09-19T05:18:37;3.65;;;2.42;;
21955;SDS011;11142;49.930;8.606;2023-09-19T05:21:05;8.35;;;2.60;;
21955;SDS011;11142;49.930;8.606;2023-09-19T05:23:34;4.07;;;2.70;;
21955;SDS011;11142;49.930;8.606;2023-09-19T05:26:04;3.67;;;2.72;;
21955;SDS011;11142;49.930;8.606;2023-09-19T05:28:32;3.58;;;2.85;;
21955;SDS011;11142;49.930;8.606;2023-09-19T05:31:02;5.38;;;3.40;;
21955;SDS011;11142;49.930;8.606;2023-09-19T05:33:30;5.70;;;3.30;;
21955;SDS011;11142;49.930;8.606;2023-09-19T05:36:00;8.88;;;3.58;;
21955;SDS011;11142;49.930;8.606;2023-09-19T05:38:29;5.53;;;3.58;;
21955;SDS011;11142;49.930;8.606;2023-09-19T05:40:59;6.57;;;3.95;;
21955;SDS011;11142;49.930;8.606;2023-09-19T05:43:27;7.40;;;3.85;;
21955;SDS011;11142;49.930;8.606;2023-09-19T05:45:56;7.00;;;3.63;;
21955;SDS011;11142;49.930;8.606;2023-09-19T05:48:25;6.63;;;3.80;;
21955;SDS011;11142;49.930;8.606;2023-09-19T05:50:54;6.35;;;3.38;;
21955;SDS011;11142;49.930;8.606;2023-09-19T05:53:22;7.18;;;3.88;;
21955;SDS011;11142;49.930;8.606;2023-09-19T05:55:50;6.20;;;3.40;;
21955;SDS011;11142;49.930;8.606;2023-09-19T05:58:19;5.97;;;3.78;;
21955;SDS011;11142;49.930;8.606;2023-09-19T06:00:48;5.03;;;3.10;;
21955;SDS011;11142;49.930;8.606;2023-09-19T06:03:16;6.03;;;3.42;;
21955;SDS011;11142;49.930;8.606;2023-09-19T06:05:47;5.60;;;3.17;;
21955;SDS011;11142;49.930;8.606;2023-09-19T06:08:16;7.78;;;3.40;;
21955;SDS011;11142;49.930;8.606;2023-09-19T06:10:44;9.73;;;3.42;;
21955;SDS011;11142;49.930;8.606;2023-09-19T06:13:14;10.07;;;3.10;;
21955;SDS011;11142;49.930;8.606;2023-09-19T06:15:42;7.18;;;2.88;;
21955;SDS011;11142;49.930;8.606;2023-09-19T06:18:11;5.72;;;2.60;;
21955;SDS011;11142;49.930;8.606;2023-09-19T06:20:42;9.68;;;3.00;;
21955;SDS011;11142;49.930;8.606;2023-09-19T06:23:13;3.63;;;3.03;;
21955;SDS011;11142;49.930;8.606;2023-09-19T06:25:41;5.00;;;2.78;;
21955;SDS011;11142;49.930;8.606;2023-09-19T06:28:11;5.30;;;2.70;;
21955;SDS011;11142;49.930;8.606;2023-09-19T06:30:40;7.78;;;2.80;;
21955;SDS011;11142;49.930;8.606;2023-09-19T06:33:09;6.38;;;2.30;;
21955;SDS011;11142;49.930;8.606;2023-09-19T06:35:43;3.88;;;2.65;;
21955;SDS011;11142;49.930;8.606;2023-09-19T06:38:12;4.05;;;2.20;;
21955;SDS011;11142;49.930;8.606;2023-09-19T06:40:42;5.55;;;2.25;;
21955;SDS011;11142;49.930;8.606;2023-09-19T06:43:10;4.85;;;2.35;;
21955;SDS011;11142;49.930;8.606;2023-09-19T06:45:38;4.13;;;2.03;;
21955;SDS011;11142;49.930;8.606;2023-09-19T06:48:06;4.57;;;2.05;;
21955;SDS011;11142;49.930;8.606;2023-09-19T06:50:36;5.15;;;2.60;;
21955;SDS011;11142;49.930;8.606;2023-09-19T06:53:05;6.38;;;2.33;;
21955;SDS011;11142;49.930;8.606;2023-09-19T06:55:35;4.65;;;2.10;;
21955;SDS011;11142;49.930;8.606;2023-09-19T06:58:03;4.05;;;2.10;;
21955;SDS011;11142;49.930;8.606;2023-09-19T07:00:32;2.70;;;1.83;;
21955;SDS011;11142;49.930;8.606;2023-09-19T07:03:02;3.75;;;2.00;;
21955;SDS011;11142;49.930;8.606;2023-09-19T07:05:39;3.15;;;2.22;;
21955;SDS011;11142;49.930;8.606;2023-09-19T07:08:09;5.78;;;2.70;;
21955;SDS011;11142;49.930;8.606;2023-09-19T07:10:43;5.00;;;2.13;;
21955;SDS011;11142;49.930;8.606;2023-09-19T07:13:16;5.50;;;2.53;;
21955;SDS011;11142;49.930;8.606;2023-09-19T07:15:44;6.05;;;2.33;;
21955;SDS011;11142;49.930;8.606;2023-09-19T07:18:14;7.85;;;2.60;;
21955;SDS011;11142;49.930;8.606;2023-09-19T07:20:44;3.70;;;2.33;;
21955;SDS011;11142;49.930;8.606;2023-09-19T07:23:16;2.95;;;2.28;;
21955;SDS011;11142;49.930;8.606;2023-09-19T07:25:46;2.92;;;1.92;;
21955;SDS011;11142;49.930;8.606;2023-09-19T07:28:16;5.38;;;2.28;;
21955;SDS011;11142;49.930;8.606;2023-09-19T07:30:44;2.45;;;2.20;;
21955;SDS011;11142;49.930;8.606;2023-09-19T07:33:13;4.72;;;2.08;;
21955;SDS011;11142;49.930;8.606;2023-09-19T07:35:44;5.50;;;2.20;;
21955;SDS011;11142;49.930;8.606;2023-09-19T07:38:14;4.95;;;2.05;;
21955;SDS011;11142;49.930;8.606;2023-09-19T07:40:42;4.55;;;2.28;;
21955;SDS011;11142;49.930;8.606;2023-09-19T07:43:12;3.28;;;1.80;;
21955;SDS011;11142;49.930;8.606;2023-09-19T07:45:40;2.83;;;1.90;;
21955;SDS011;11142;49.930;8.606;2023-09-19T07:48:09;3.38;;;1.80;;
21955;SDS011;11142;49.930;8.606;2023-09-19T07:50:41;2.75;;;1.55;;
21955;SDS011;11142;49.930;8.606;2023-09-19T07:53:11;5.15;;;1.80;;
21955;SDS011;11142;49.930;8.606;2023-09-19T07:55:42;5.40;;;1.75;;
21955;SDS011;11142;49.930;8.606;2023-09-19T07:58:16;3.63;;;2.03;;
21955;SDS011;11142;49.930;8.606;2023-09-19T08:00:44;3.55;;;1.65;;
21955;SDS011;11142;49.930;8.606;2023-09-19T08:03:13;7.50;;;2.22;;
21955;SDS011;11142;49.930;8.606;2023-09-19T08:05:43;2.20;;;1.55;;
21955;SDS011;11142;49.930;8.606;2023-09-19T08:08:12;4.93;;;1.95;;
21955;SDS011;11142;49.930;8.606;2023-09-19T08:10:42;2.08;;;1.58;;
21955;SDS011;11142;49.930;8.606;2023-09-19T08:13:17;2.38;;;1.48;;
21955;SDS011;11142;49.930;8.606;2023-09-19T08:15:45;2.15;;;1.00;;
21955;SDS011;11142;49.930;8.606;2023-09-19T08:18:15;3.35;;;1.23;;
21955;SDS011;11142;49.930;8.606;2023-09-19T08:20:43;4.55;;;1.08;;
21955;SDS011;11142;49.930;8.606;2023-09-19T08:23:17;6.53;;;2.03;;
21955;SDS011;11142;49.930;8.606;2023-09-19T08:25:46;2.42;;;1.02;;
21955;SDS011;11142;49.930;8.606;2023-09-19T08:28:14;2.67;;;1.17;;
21955;SDS011;11142;49.930;8.606;2023-09-19T08:30:47;6.78;;;1.20;;
21955;SDS011;11142;49.930;8.606;2023-09-19T08:33:15;4.85;;;1.35;;
21955;SDS011;11142;49.930;8.606;2023-09-19T08:35:44;2.80;;;1.17;;
21955;SDS011;11142;49.930;8.606;2023-09-19T08:38:12;4.85;;;1.40;;
21955;SDS011;11142;49.930;8.606;2023-09-19T08:40:40;7.10;;;1.42;;
21955;SDS011;11142;49.930;8.606;2023-09-19T08:43:10;5.07;;;1.20;;
21955;SDS011;11142;49.930;8.606;2023-09-19T08:45:43;5.50;;;1.23;;
21955;SDS011;11142;49.930;8.606;2023-09-19T08:48:20;3.78;;;1.20;;
21955;SDS011;11142;49.930;8.606;2023-09-19T08:50:52;6.85;;;1.35;;
21955;SDS011;11142;49.930;8.606;2023-09-19T08:53:26;2.63;;;1.20;;
21955;SDS011;11142;49.930;8.606;2023-09-19T08:55:59;3.15;;;1.40;;
21955;SDS011;11142;49.930;8.606;2023-09-19T08:58:31;2.15;;;1.20;;
21955;SDS011;11142;49.930;8.606;2023-09-19T09:01:03;5.93;;;1.30;;
21955;SDS011;11142;49.930;8.606;2023-09-19T09:03:33;5.05;;;1.20;;
21955;SDS011;11142;49.930;8.606;2023-09-19T09:06:02;5.93;;;1.75;;
21955;SDS011;11142;49.930;8.606;2023-09-19T09:08:31;3.00;;;1.48;;
21955;SDS011;11142;49.930;8.606;2023-09-19T09:11:00;5.25;;;1.23;;
21955;SDS011;11142;49.930;8.606;2023-09-19T09:13:28;3.67;;;1.10;;
21955;SDS011;11142;49.930;8.606;2023-09-19T09:15:57;6.20;;;1.08;;
21955;SDS011;11142;49.930;8.606;2023-09-19T09:18:27;2.50;;;1.50;;
21955;SDS011;11142;49.930;8.606;2023-09-19T09:20:56;3.83;;;1.38;;
21955;SDS011;11142;49.930;8.606;2023-09-19T09:23:25;2.90;;;1.25;;
21955;SDS011;11142;49.930;8.606;2023-09-19T09:25:56;2.60;;;1.05;;
21955;SDS011;11142;49.930;8.606;2023-09-19T09:28:30;2.50;;;1.27;;
21955;SDS011;11142;49.930;8.606;2023-09-19T09:31:00;3.03;;;1.13;;
21955;SDS011;11142;49.930;8.606;2023-09-19T09:33:31;3.53;;;1.17;;
21955;SDS011;11142;49.930;8.606;2023-09-19T09:35:59;1.73;;;0.80;;
21955;SDS011;11142;49.930;8.606;2023-09-19T09:38:29;2.03;;;0.98;;
21955;SDS011;11142;49.930;8.606;2023-09-19T09:41:10;2.55;;;1.02;;
21955;SDS011;11142;49.930;8.606;2023-09-19T09:43:42;7.22;;;1.60;;
21955;SDS011;11142;49.930;8.606;2023-09-19T09:46:13;3.97;;;1.30;;
21955;SDS011;11142;49.930;8.606;2023-09-19T09:49:02;2.58;;;0.70;;
21955;SDS011;11142;49.930;8.606;2023-09-19T09:51:48;2.10;;;1.13;;
21955;SDS011;11142;49.930;8.606;2023-09-19T09:54:26;2.35;;;1.23;;
21955;SDS011;11142;49.930;8.606;2023-09-19T09:57:04;4.43;;;1.50;;
21955;SDS011;11142;49.930;8.606;2023-09-19T09:59:44;4.60;;;1.25;;
21955;SDS011;11142;49.930;8.606;2023-09-19T10:02:25;4.85;;;1.27;;
21955;SDS011;11142;49.930;8.606;2023-09-19T10:04:58;4.30;;;1.17;;
21955;SDS011;11142;49.930;8.606;2023-09-19T10:07:36;3.22;;;1.40;;
21955;SDS011;11142;49.930;8.606;2023-09-19T10:10:10;6.55;;;1.30;;
21955;SDS011;11142;49.930;8.606;2023-09-19T10:12:43;4.35;;;1.50;;
21955;SDS011;11142;49.930;8.606;2023-09-19T10:15:14;2.22;;;1.27;;
21955;SDS011;11142;49.930;8.606;2023-09-19T10:17:44;3.40;;;1.30;;
21955;SDS011;11142;49.930;8.606;2023-09-19T10:20:14;4.43;;;1.25;;
21955;SDS011;11142;49.930;8.606;2023-09-19T10:23:00;2.03;;;1.10;;
21955;SDS011;11142;49.930;8.606;2023-09-19T10:25:36;4.43;;;1.30;;
21955;SDS011;11142;49.930;8.606;2023-09-19T10:28:06;5.43;;;1.38;;
21955;SDS011;11142;49.930;8.606;2023-09-19T10:30:43;4.35;;;1.30;;
21955;SDS011;11142;49.930;8.606;2023-09-19T10:33:14;4.45;;;1.20;;
21955;SDS011;11142;49.930;8.606;2023-09-19T10:35:45;1.95;;;0.98;;
21955;SDS011;11142;49.930;8.606;2023-09-19T10:38:17;3.17;;;0.82;;
21955;SDS011;11142;49.930;8.606;2023-09-19T10:40:48;4.87;;;1.20;;
21955;SDS011;11142;49.930;8.606;2023-09-19T10:43:19;2.85;;;1.30;;
21955;SDS011;11142;49.930;8.606;2023-09-19T10:45:49;2.75;;;1.13;;
21955;SDS011;11142;49.930;8.606;2023-09-19T10:48:20;1.92;;;1.00;;
21955;SDS011;11142;49.930;8.606;2023-09-19T10:50:56;4.00;;;1.10;;
21955;SDS011;11142;49.930;8.606;2023-09-19T10:53:45;4.07;;;1.20;;
21955;SDS011;11142;49.930;8.606;2023-09-19T10:56:18;4.43;;;1.70;;
21955;SDS011;11142;49.930;8.606;2023-09-19T10:58:53;2.90;;;1.02;;
21955;SDS011;11142;49.930;8.606;2023-09-19T11:01:43;4.28;;;1.35;;
21955;SDS011;11142;49.930;8.606;2023-09-19T11:04:21;5.95;;;1.33;;
21955;SDS011;11142;49.930;8.606;2023-09-19T11:07:02;6.78;;;1.50;;
21955;SDS011;11142;49.930;8.606;2023-09-19T11:09:47;4.03;;;1.00;;
21955;SDS011;11142;49.930;8.606;2023-09-19T11:24:30;3.95;;;1.15;;
21955;SDS011;11142;49.930;8.606;2023-09-19T11:27:09;3.92;;;1.30;;
21955;SDS011;11142;49.930;8.606;2023-09-19T11:29:44;8.00;;;1.00;;
21955;SDS011;11142;49.930;8.606;2023-09-19T11:32:12;3.72;;;1.38;;
21955;SDS011;11142;49.930;8.606;2023-09-19T11:34:48;3.97;;;1.17;;
21955;SDS011;11142;49.930;8.606;2023-09-19T11:40:39;2.67;;;1.15;;
21955;SDS011;11142;49.930;8.606;2023-09-19T11:43:28;8.05;;;1.40;;
21955;SDS011;11142;49.930;8.606;2023-09-19T11:46:04;2.13;;;1.10;;
21955;SDS011;11142;49.930;8.606;2023-09-19T11:48:32;7.03;;;1.48;;
21955;SDS011;11142;49.930;8.606;2023-09-19T11:51:11;3.40;;;0.90;;
21955;SDS011;11142;49.930;8.606;2023-09-19T11:53:47;2.42;;;0.90;;
21955;SDS011;11142;49.930;8.606;2023-09-19T11:56:18;4.65;;;1.38;;
21955;SDS011;11142;49.930;8.606;2023-09-19T11:58:49;2.67;;;1.30;;
21955;SDS011;11142;49.930;8.606;2023-09-19T12:01:23;3.38;;;1.63;;
21955;SDS011;11142;49.930;8.606;2023-09-19T12:03:56;5.38;;;1.52;;
21955;SDS011;11142;49.930;8.606;2023-09-19T12:06:26;4.85;;;1.00;;
21955;SDS011;11142;49.930;8.606;2023-09-19T12:08:57;1.83;;;1.00;;
21955;SDS011;11142;49.930;8.606;2023-09-19T12:11:40;4.95;;;1.35;;
21955;SDS011;11142;49.930;8.606;2023-09-19T12:14:11;2.78;;;1.20;;
21955;SDS011;11142;49.930;8.606;2023-09-19T12:16:40;2.40;;;1.10;;
21955;SDS011;11142;49.930;8.606;2023-09-19T12:19:23;2.17;;;1.10;;
21955;SDS011;11142;49.930;8.606;2023-09-19T12:21:54;3.05;;;1.27;;
21955;SDS011;11142;49.930;8.606;2023-09-19T12:24:25;3.22;;;1.00;;
21955;SDS011;11142;49.930;8.606;2023-09-19T12:27:09;2.58;;;1.10;;
21955;SDS011;11142;49.930;8.606;2023-09-19T12:29:42;5.22;;;1.50;;
21955;SDS011;11142;49.930;8.606;2023-09-19T12:32:11;3.03;;;1.13;;
21955;SDS011;11142;49.930;8.606;2023-09-19T12:34:50;4.53;;;1.35;;
21955;SDS011;11142;49.930;8.606;2023-09-19T12:37:21;4.18;;;1.23;;
21955;SDS011;11142;49.930;8.606;2023-09-19T12:40:04;3.58;;;1.13;;
21955;SDS011;11142;49.930;8.606;2023-09-19T12:42:44;3.42;;;1.10;;
21955;SDS011;11142;49.930;8.606;2023-09-19T12:45:16;1.92;;;1.00;;
21955;SDS011;11142;49.930;8.606;2023-09-19T12:51:00;2.70;;;1.17;;
21955;SDS011;11142;49.930;8.606;2023-09-19T12:53:33;4.22;;;0.90;;
21955;SDS011;11142;49.930;8.606;2023-09-19T12:56:07;3.58;;;1.02;;
21955;SDS011;11142;49.930;8.606;2023-09-19T12:58:49;4.63;;;1.13;;
21955;SDS011;11142;49.930;8.606;2023-09-19T13:01:18;3.00;;;1.00;;
21955;SDS011;11142;49.930;8.606;2023-09-19T13:03:46;2.40;;;1.00;;
21955;SDS011;11142;49.930;8.606;2023-09-19T13:06:45;1.58;;;1.02;;
21955;SDS011;11142;49.930;8.606;2023-09-19T13:09:16;6.60;;;1.70;;
21955;SDS011;11142;49.930;8.606;2023-09-19T13:11:47;2.60;;;1.00;;
21955;SDS011;11142;49.930;8.606;2023-09-19T13:14:19;4.20;;;1.42;;
21955;SDS011;11142;49.930;8.606;2023-09-19T13:16:57;3.05;;;1.23;;
21955;SDS011;11142;49.930;8.606;2023-09-19T13:19:40;1.80;;;0.70;;
21955;SDS011;11142;49.930;8.606;2023-09-19T13:25:08;4.38;;;0.85;;
21955;SDS011;11142;49.930;8.606;2023-09-19T13:27:41;2.03;;;0.73;;
21955;SDS011;11142;49.930;8.606;2023-09-19T13:30:13;4.10;;;1.10;;
21955;SDS011;11142;49.930;8.606;2023-09-19T13:32:42;6.18;;;1.02;;
21955;SDS011;11142;49.930;8.606;2023-09-19T13:35:14;4.60;;;1.10;;
21955;SDS011;11142;49.930;8.606;2023-09-19T13:37:43;2.38;;;0.93;;
21955;SDS011;11142;49.930;8.606;2023-09-19T13:40:14;2.60;;;1.55;;
21955;SDS011;11142;49.930;8.606;2023-09-19T13:42:43;2.25;;;0.77;;
21955;SDS011;11142;49.930;8.606;2023-09-19T13:45:15;1.85;;;1.08;;
21955;SDS011;11142;49.930;8.606;2023-09-19T13:47:48;2.22;;;1.00;;
21955;SDS011;11142;49.930;8.606;2023-09-19T13:50:16;2.92;;;1.02;;
21955;SDS011;11142;49.930;8.606;2023-09-19T13:52:51;2.33;;;0.95;;
21955;SDS011;11142;49.930;8.606;2023-09-19T13:55:22;3.05;;;1.23;;
21955;SDS011;11142;49.930;8.606;2023-09-19T13:57:51;3.03;;;1.10;;
21955;SDS011;11142;49.930;8.606;2023-09-19T14:00:23;1.42;;;1.05;;
21955;SDS011;11142;49.930;8.606;2023-09-19T14:02:52;2.17;;;1.10;;
21955;SDS011;11142;49.930;8.606;2023-09-19T14:05:20;2.60;;;0.95;;
21955;SDS011;11142;49.930;8.606;2023-09-19T14:07:48;4.57;;;0.95;;
21955;SDS011;11142;49.930;8.606;2023-09-19T14:10:17;1.75;;;0.95;;
21955;SDS011;11142;49.930;8.606;2023-09-19T14:12:46;4.05;;;0.90;;
21955;SDS011;11142;49.930;8.606;2023-09-19T14:15:14;2.90;;;1.17;;
21955;SDS011;11142;49.930;8.606;2023-09-19T14:17:44;1.25;;;0.85;;
21955;SDS011;11142;49.930;8.606;2023-09-19T14:20:13;2.80;;;1.30;;
21955;SDS011;11142;49.930;8.606;2023-09-19T14:22:42;2.78;;;0.88;;
21955;SDS011;11142;49.930;8.606;2023-09-19T14:25:11;4.43;;;1.00;;
21955;SDS011;11142;49.930;8.606;2023-09-19T14:27:39;1.70;;;1.20;;
21955;SDS011;11142;49.930;8.606;2023-09-19T14:30:08;2.42;;;1.20;;
21955;SDS011;11142;49.930;8.606;2023-09-19T14:32:37;1.90;;;1.05;;
21955;SDS011;11142;49.930;8.606;2023-09-19T14:35:07;1.90;;;0.80;;
21955;SDS011;11142;49.930;8.606;2023-09-19T14:37:37;1.48;;;1.08;;
21955;SDS011;11142;49.930;8.606;2023-09-19T14:40:07;1.98;;;0.95;;
21955;SDS011;11142;49.930;8.606;2023-09-19T14:42:38;2.05;;;1.30;;
21955;SDS011;11142;49.930;8.606;2023-09-19T14:45:07;2.58;;;1.00;;
21955;SDS011;11142;49.930;8.606;2023-09-19T14:47:38;1.83;;;1.20;;
21955;SDS011;11142;49.930;8.606;2023-09-19T14:50:09;1.27;;;0.75;;
21955;SDS011;11142;49.930;8.606;2023-09-19T14:52:39;4.97;;;1.20;;
21955;SDS011;11142;49.930;8.606;2023-09-19T14:55:07;1.90;;;1.17;;
21955;SDS011;11142;49.930;8.606;2023-09-19T14:57:41;3.03;;;0.90;;
21955;SDS011;11142;49.930;8.606;2023-09-19T15:00:12;2.00;;;1.10;;
21955;SDS011;11142;49.930;8.606;2023-09-19T15:02:54;3.63;;;1.05;;
21955;SDS011;11142;49.930;8.606;2023-09-19T15:05:26;2.35;;;1.10;;
21955;SDS011;11142;49.930;8.606;2023-09-19T15:07:59;2.53;;;1.00;;
21955;SDS011;11142;49.930;8.606;2023-09-19T15:10:34;3.22;;;1.20;;
21955;SDS011;11142;49.930;8.606;2023-09-19T15:13:10;4.57;;;1.35;;
21955;SDS011;11142;49.930;8.606;2023-09-19T15:15:48;2.92;;;1.13;;
21955;SDS011;11142;49.930;8.606;2023-09-19T15:18:26;1.60;;;0.80;;
21955;SDS011;11142;49.930;8.606;2023-09-19T15:20:56;2.67;;;1.30;;
21955;SDS011;11142;49.930;8.606;2023-09-19T15:23:31;2.65;;;0.95;;
21955;SDS011;11142;49.930;8.606;2023-09-19T15:26:12;1.05;;;0.80;;
21955;SDS011;11142;49.930;8.606;2023-09-19T15:28:44;4.35;;;1.10;;
21955;SDS011;11142;49.930;8.606;2023-09-19T15:31:38;2.95;;;0.93;;
21955;SDS011;11142;49.930;8.606;2023-09-19T15:34:16;2.10;;;0.60;;
21955;SDS011;11142;49.930;8.606;2023-09-19T15:36:46;2.75;;;1.00;;